createdAt,value
2017-06-28T00:01:09.231Z,7.47
2017-06-28T00:03:36.891Z,7.90
2017-06-28T00:08:40.962Z,7.90
2017-06-28T00:11:15.789Z,7.80
2017-06-28T00:13:49.825Z,7.90
2017-06-28T00:16:18.360Z,7.80
2017-06-28T00:18:46.039Z,8.10
2017-06-28T00:21:17.677Z,7.18
2017-06-28T00:23:46.326Z,8.10
2017-06-28T00:31:52.591Z,8.00
2017-06-28T00:34:24.154Z,8.50
2017-06-28T00:36:52.672Z,7.77
2017-06-28T00:39:24.790Z,8.83
2017-06-28T00:41:52.449Z,8.30
2017-06-28T00:44:20.253Z,8.20
2017-06-28T00:46:48.110Z,7.50
2017-06-28T00:49:22.365Z,8.33
2017-06-28T00:51:53.906Z,8.20
2017-06-28T00:54:27.343Z,7.57
2017-06-28T00:56:55.743Z,8.40
2017-06-28T00:59:23.341Z,7.67
2017-06-28T01:01:57.755Z,8.70
2017-06-28T01:07:02.907Z,8.50
2017-06-28T01:09:30.415Z,8.10
2017-06-28T01:11:58.270Z,8.53
2017-06-28T01:14:25.972Z,8.60
2017-06-28T01:17:00.793Z,8.30
2017-06-28T01:19:44.177Z,8.97
2017-06-28T01:22:13.790Z,8.73
2017-06-28T01:24:42.402Z,8.37
2017-06-28T01:27:11.727Z,7.47
2017-06-28T01:29:39.270Z,8.97
2017-06-28T01:32:06.789Z,9.17
2017-06-28T01:34:39.387Z,8.30
2017-06-28T01:37:07.202Z,9.10
2017-06-28T01:39:45.378Z,9.87
2017-06-28T01:42:14.279Z,9.40
2017-06-28T01:44:41.978Z,9.73
2017-06-28T01:47:09.509Z,9.70
2017-06-28T01:49:38.375Z,10.10
2017-06-28T01:52:07.913Z,9.97
2017-06-28T01:54:35.709Z,9.10
2017-06-28T01:57:03.371Z,9.70
2017-06-28T01:59:30.968Z,8.97
2017-06-28T02:02:06.932Z,10.30
2017-06-28T02:04:46.409Z,8.80
2017-06-28T02:07:15.183Z,9.30
2017-06-28T02:09:43.643Z,9.63
2017-06-28T02:12:19.821Z,10.17
2017-06-28T02:14:47.879Z,9.70
2017-06-28T02:17:18.099Z,9.90
2017-06-28T02:19:46.835Z,9.23
2017-06-28T02:22:15.390Z,11.07
2017-06-28T02:24:42.982Z,10.10
2017-06-28T02:27:11.210Z,9.53
2017-06-28T02:29:39.051Z,9.83
2017-06-28T02:32:08.056Z,9.63
2017-06-28T02:34:36.409Z,9.73
2017-06-28T02:37:03.961Z,9.80
2017-06-28T02:39:31.525Z,9.70
2017-06-28T02:42:01.047Z,9.20
2017-06-28T02:44:28.741Z,9.30
2017-06-28T02:46:57.320Z,9.67
2017-06-28T02:49:28.400Z,9.67
2017-06-28T02:51:56.498Z,10.37
2017-06-28T02:54:25.045Z,10.60
2017-06-28T02:56:53.829Z,10.17
2017-06-28T02:59:21.360Z,10.10
2017-06-28T03:01:48.903Z,9.47
2017-06-28T03:04:16.492Z,10.50
2017-06-28T03:06:44.050Z,10.40
2017-06-28T03:09:11.605Z,11.10
2017-06-28T03:11:39.280Z,10.00
2017-06-28T03:14:06.888Z,9.97
2017-06-28T03:16:38.005Z,9.93
2017-06-28T03:19:05.525Z,10.20
2017-06-28T03:21:33.412Z,10.60
2017-06-28T03:24:00.961Z,10.50
2017-06-28T03:26:28.516Z,9.73
2017-06-28T03:28:56.077Z,10.57
2017-06-28T03:31:24.299Z,10.67
2017-06-28T03:33:51.837Z,10.10
2017-06-28T03:36:20.596Z,10.50
2017-06-28T03:38:48.145Z,9.47
2017-06-28T03:41:15.733Z,10.47
2017-06-28T03:43:43.293Z,10.00
2017-06-28T03:46:10.792Z,11.10
2017-06-28T03:48:38.334Z,9.63
2017-06-28T03:51:05.839Z,11.10
2017-06-28T03:53:33.373Z,9.80
2017-06-28T03:56:00.857Z,11.17
2017-06-28T03:58:28.349Z,10.27
2017-06-28T04:00:55.848Z,9.73
2017-06-28T04:03:23.330Z,9.87
2017-06-28T04:05:50.836Z,9.63
2017-06-28T04:08:18.328Z,10.63
2017-06-28T04:10:45.830Z,9.40
2017-06-28T04:13:13.322Z,9.63
2017-06-28T04:15:40.824Z,9.07
2017-06-28T04:18:08.308Z,8.90
2017-06-28T04:20:35.828Z,10.00
2017-06-28T04:23:03.316Z,9.53
2017-06-28T04:25:31.580Z,10.20
2017-06-28T04:27:59.061Z,8.47
2017-06-28T04:30:26.568Z,9.73
2017-06-28T04:32:54.051Z,9.80
2017-06-28T04:35:21.555Z,9.77
2017-06-28T04:37:49.036Z,8.73
2017-06-28T04:40:16.821Z,8.60
2017-06-28T04:42:44.348Z,9.53
2017-06-28T04:45:11.847Z,9.20
2017-06-28T04:47:39.336Z,9.37
2017-06-28T04:50:06.831Z,9.30
2017-06-28T04:52:34.338Z,9.87
2017-06-28T04:55:01.829Z,10.50
2017-06-28T04:57:29.336Z,10.13
2017-06-28T04:59:56.837Z,9.50
2017-06-28T05:02:24.352Z,8.50
2017-06-28T05:04:51.840Z,9.37
2017-06-28T05:07:19.364Z,9.70
2017-06-28T05:09:46.849Z,9.70
2017-06-28T05:12:14.371Z,9.30
2017-06-28T05:14:42.629Z,9.63
2017-06-28T05:17:10.899Z,9.57
2017-06-28T05:19:39.151Z,9.57
2017-06-28T05:22:06.652Z,8.83
2017-06-28T05:24:34.129Z,9.07
2017-06-28T05:27:01.650Z,8.87
2017-06-28T05:29:29.136Z,8.20
2017-06-28T05:31:57.547Z,8.53
2017-06-28T05:34:25.030Z,8.30
2017-06-28T05:36:52.566Z,8.17
2017-06-28T05:39:20.057Z,7.97
2017-06-28T05:41:47.576Z,7.20
2017-06-28T05:44:15.052Z,6.60
2017-06-28T05:46:42.537Z,6.63
2017-06-28T05:49:10.036Z,6.27
2017-06-28T05:51:37.535Z,4.97
2017-06-28T05:54:05.952Z,4.40
2017-06-28T05:56:33.440Z,4.40
2017-06-28T05:59:01.708Z,4.10
2017-06-28T06:01:29.952Z,4.13
2017-06-28T06:03:57.464Z,4.23
2017-06-28T06:06:24.961Z,4.13
2017-06-28T06:08:52.481Z,4.23
2017-06-28T06:11:20.730Z,4.07
2017-06-28T06:13:48.240Z,3.57
2017-06-28T06:16:15.820Z,4.10
2017-06-28T06:18:43.338Z,3.40
2017-06-28T06:21:10.841Z,2.83
2017-06-28T06:23:38.410Z,3.20
2017-06-28T06:26:05.916Z,3.23
2017-06-28T06:28:33.420Z,3.10
2017-06-28T06:31:00.908Z,3.03
2017-06-28T06:33:28.416Z,3.40
2017-06-28T06:35:55.902Z,3.03
2017-06-28T06:38:23.459Z,3.37
2017-06-28T06:40:50.944Z,2.87
2017-06-28T06:43:18.428Z,5.80
2017-06-28T06:45:45.924Z,3.87
2017-06-28T06:48:13.399Z,2.97
2017-06-28T06:50:40.940Z,3.10
2017-06-28T06:53:08.444Z,2.60
2017-06-28T06:55:35.967Z,3.30
2017-06-28T06:58:03.487Z,3.27
2017-06-28T07:00:30.984Z,3.50
2017-06-28T07:02:58.544Z,2.80
2017-06-28T07:05:26.068Z,2.63
2017-06-28T07:07:53.560Z,3.40
2017-06-28T07:10:21.068Z,3.90
2017-06-28T07:12:48.643Z,4.40
2017-06-28T07:15:16.150Z,6.43
2017-06-28T07:17:44.412Z,9.73
2017-06-28T07:20:12.698Z,7.60
2017-06-28T07:22:40.180Z,7.30
2017-06-28T07:25:07.681Z,6.20
2017-06-28T07:27:35.171Z,4.50
2017-06-28T07:30:02.690Z,4.53
2017-06-28T07:32:30.191Z,5.70
2017-06-28T07:34:57.709Z,4.50
2017-06-28T07:37:25.195Z,16.30
2017-06-28T07:39:52.680Z,7.60
2017-06-28T07:42:20.192Z,10.87
2017-06-28T07:44:47.684Z,5.83
2017-06-28T07:47:15.191Z,4.60
2017-06-28T07:49:42.674Z,5.40
2017-06-28T07:52:10.173Z,4.43
2017-06-28T07:54:37.647Z,4.10
2017-06-28T07:57:05.156Z,4.20
2017-06-28T07:59:32.643Z,3.80
2017-06-28T08:02:00.151Z,3.77
2017-06-28T08:04:27.637Z,4.20
2017-06-28T08:06:55.912Z,3.70
2017-06-28T08:09:24.159Z,3.70
2017-06-28T08:11:52.423Z,3.53
2017-06-28T08:14:20.673Z,2.80
2017-06-28T08:16:48.180Z,2.67
2017-06-28T08:19:15.665Z,3.10
2017-06-28T08:21:43.943Z,2.73
2017-06-28T08:24:11.428Z,2.77
2017-06-28T08:26:38.936Z,2.40
2017-06-28T08:29:06.414Z,2.10
2017-06-28T08:31:33.907Z,2.60
2017-06-28T08:34:01.411Z,2.63
2017-06-28T08:36:28.891Z,2.40
2017-06-28T08:38:56.405Z,3.00
2017-06-28T08:41:23.899Z,2.67
2017-06-28T08:43:51.412Z,2.53
2017-06-28T08:46:18.889Z,2.50
2017-06-28T08:48:46.387Z,2.90
2017-06-28T08:51:13.884Z,2.77
2017-06-28T08:53:41.422Z,2.50
2017-06-28T08:56:08.907Z,2.90
2017-06-28T08:58:36.416Z,3.10
2017-06-28T09:01:03.899Z,2.70
2017-06-28T09:03:31.407Z,2.77
2017-06-28T09:05:58.898Z,3.30
2017-06-28T09:08:27.172Z,3.20
2017-06-28T09:10:54.660Z,3.57
2017-06-28T09:13:22.159Z,3.57
2017-06-28T09:15:49.652Z,3.43
2017-06-28T09:18:17.172Z,3.60
2017-06-28T09:20:44.672Z,3.17
2017-06-28T09:23:12.926Z,3.43
2017-06-28T09:25:41.205Z,3.40
2017-06-28T09:28:08.697Z,3.50
2017-06-28T09:30:36.191Z,3.73
2017-06-28T09:33:03.685Z,4.20
2017-06-28T09:35:31.185Z,4.70
2017-06-28T09:37:58.667Z,3.93
2017-06-28T09:40:26.182Z,3.90
2017-06-28T09:42:53.666Z,4.17
2017-06-28T09:45:21.184Z,4.57
2017-06-28T09:47:48.669Z,4.30
2017-06-28T09:50:16.178Z,4.90
2017-06-28T09:52:43.668Z,5.07
2017-06-28T09:55:11.188Z,4.40
2017-06-28T09:57:39.447Z,3.83
2017-06-28T10:00:06.964Z,4.00
2017-06-28T10:02:34.459Z,5.40
2017-06-28T10:05:01.964Z,4.00
2017-06-28T10:07:29.465Z,3.23
2017-06-28T10:09:56.970Z,3.80
2017-06-28T10:12:25.224Z,3.43
2017-06-28T10:14:52.750Z,3.37
2017-06-28T10:17:20.269Z,3.47
2017-06-28T10:19:47.796Z,3.30
2017-06-28T10:22:15.812Z,3.13
2017-06-28T10:24:43.332Z,3.17
2017-06-28T10:27:10.864Z,3.43
2017-06-28T10:29:38.345Z,3.37
2017-06-28T10:32:06.618Z,3.07
2017-06-28T10:34:34.154Z,2.93
2017-06-28T10:37:01.688Z,2.53
2017-06-28T10:39:29.942Z,3.17
2017-06-28T10:41:57.460Z,3.47
2017-06-28T10:44:24.944Z,2.70
2017-06-28T10:46:52.463Z,3.03
2017-06-28T10:49:19.961Z,2.70
2017-06-28T10:51:47.485Z,2.97
2017-06-28T10:54:14.979Z,2.57
2017-06-28T10:56:42.489Z,3.37
2017-06-28T10:59:09.985Z,3.73
2017-06-28T11:01:37.515Z,4.00
2017-06-28T11:04:05.019Z,3.20
2017-06-28T11:06:32.539Z,3.40
2017-06-28T11:09:00.028Z,3.27
2017-06-28T11:11:27.512Z,2.80
2017-06-28T11:13:55.036Z,3.33
2017-06-28T11:16:22.524Z,3.40
2017-06-28T11:18:50.019Z,4.30
2017-06-28T11:21:18.281Z,4.60
2017-06-28T11:23:46.556Z,4.70
2017-06-28T11:26:14.037Z,5.03
2017-06-28T11:28:41.543Z,4.90
2017-06-28T11:31:09.032Z,4.63
2017-06-28T11:33:36.546Z,4.30
2017-06-28T11:36:04.032Z,4.57
2017-06-28T11:38:31.732Z,4.20
2017-06-28T11:40:59.220Z,3.43
2017-06-28T11:43:26.737Z,3.60
2017-06-28T11:45:54.227Z,4.10
2017-06-28T11:48:22.501Z,2.93
2017-06-28T11:50:50.064Z,4.40
2017-06-28T11:53:17.577Z,3.80
2017-06-28T11:55:46.584Z,4.00
2017-06-28T11:58:14.088Z,4.10
2017-06-28T12:00:41.580Z,4.20
2017-06-28T12:03:09.673Z,4.23
2017-06-28T12:05:38.313Z,3.80
2017-06-28T12:08:05.848Z,4.20
2017-06-28T12:10:33.348Z,3.77
2017-06-28T12:13:01.619Z,4.10
2017-06-28T12:15:29.906Z,3.90
2017-06-28T12:17:57.406Z,3.33
2017-06-28T12:20:25.687Z,4.27
2017-06-28T12:22:53.951Z,3.47
2017-06-28T12:25:21.460Z,3.23
2017-06-28T12:27:48.950Z,3.20
2017-06-28T12:30:16.476Z,4.20
2017-06-28T12:32:43.968Z,3.73
2017-06-28T12:35:11.500Z,4.10
2017-06-28T12:37:38.984Z,3.40
2017-06-28T12:40:06.487Z,3.40
2017-06-28T12:42:33.976Z,3.90
2017-06-28T12:45:01.755Z,3.33
2017-06-28T12:47:29.245Z,3.70
2017-06-28T12:49:56.768Z,3.20
2017-06-28T12:52:24.260Z,3.03
2017-06-28T12:54:51.778Z,3.50
2017-06-28T12:57:19.259Z,3.30
2017-06-28T12:59:47.848Z,4.10
2017-06-28T13:02:15.369Z,3.30
2017-06-28T13:04:42.896Z,2.43
2017-06-28T13:07:10.430Z,3.10
2017-06-28T13:09:38.296Z,3.37
2017-06-28T13:12:06.628Z,3.30
2017-06-28T13:14:35.094Z,2.67
2017-06-28T13:17:03.048Z,3.00
2017-06-28T13:19:30.577Z,2.63
2017-06-28T13:21:59.416Z,3.00
2017-06-28T13:24:28.506Z,3.27
2017-06-28T13:26:56.035Z,2.97
2017-06-28T13:29:23.522Z,2.63
2017-06-28T13:31:51.036Z,2.80
2017-06-28T13:34:18.530Z,2.90
2017-06-28T13:36:46.797Z,2.60
2017-06-28T13:39:16.196Z,2.70
2017-06-28T13:41:44.420Z,2.67
2017-06-28T13:44:12.012Z,2.90
2017-06-28T13:46:51.439Z,3.03
2017-06-28T13:49:19.069Z,3.30
2017-06-28T13:51:46.575Z,3.10
2017-06-28T13:54:18.848Z,2.80
2017-06-28T13:56:46.417Z,2.93
2017-06-28T13:59:13.916Z,2.30
2017-06-28T14:01:41.425Z,2.00
2017-06-28T14:04:08.952Z,2.07
2017-06-28T14:06:36.509Z,2.10
2017-06-28T14:09:05.504Z,2.23
2017-06-28T14:11:32.986Z,2.20
2017-06-28T14:14:00.488Z,2.67
2017-06-28T14:16:30.929Z,2.37
2017-06-28T14:18:59.218Z,2.73
2017-06-28T14:21:26.728Z,2.50
2017-06-28T14:23:54.223Z,2.60
2017-06-28T14:26:21.724Z,3.13
2017-06-28T14:28:53.470Z,2.60
2017-06-28T14:31:20.968Z,3.03
2017-06-28T14:33:48.492Z,3.40
2017-06-28T14:36:15.984Z,3.07
2017-06-28T14:38:43.494Z,3.07
2017-06-28T14:41:10.993Z,3.20
2017-06-28T14:43:38.765Z,2.90
2017-06-28T14:46:06.246Z,3.27
2017-06-28T14:48:35.465Z,2.83
2017-06-28T14:51:03.581Z,2.90
2017-06-28T14:53:31.095Z,3.20
2017-06-28T14:55:58.584Z,3.10
2017-06-28T14:58:26.089Z,3.77
2017-06-28T15:00:53.589Z,3.10
2017-06-28T15:03:21.111Z,2.90
2017-06-28T15:05:48.600Z,9.37
2017-06-28T15:08:16.225Z,3.03
2017-06-28T15:10:43.729Z,3.37
2017-06-28T15:13:11.784Z,2.80
2017-06-28T15:15:40.092Z,2.60
2017-06-28T15:18:07.582Z,3.40
2017-06-28T15:20:36.579Z,2.67
2017-06-28T15:23:04.841Z,2.63
2017-06-28T15:25:38.845Z,2.70
2017-06-28T15:28:07.097Z,2.57
2017-06-28T15:30:34.612Z,2.90
2017-06-28T15:33:02.220Z,2.80
2017-06-28T15:35:29.724Z,3.03
2017-06-28T15:37:57.215Z,3.20
2017-06-28T15:40:24.731Z,2.47
2017-06-28T15:42:52.217Z,2.87
2017-06-28T15:45:19.877Z,3.80
2017-06-28T15:47:47.366Z,3.07
2017-06-28T15:50:16.099Z,3.73
2017-06-28T15:52:43.585Z,3.20
2017-06-28T15:55:11.116Z,3.43
2017-06-28T15:57:39.367Z,3.20
2017-06-28T16:00:07.663Z,3.40
2017-06-28T16:02:36.175Z,3.23
2017-06-28T16:05:04.917Z,3.90
2017-06-28T16:07:32.425Z,3.40
2017-06-28T16:09:59.925Z,3.03
2017-06-28T16:12:28.618Z,3.43
2017-06-28T16:14:56.878Z,3.50
2017-06-28T16:17:24.631Z,3.10
2017-06-28T16:19:52.162Z,3.00
2017-06-28T16:22:33.956Z,3.10
2017-06-28T16:25:01.960Z,3.60
2017-06-28T16:27:29.473Z,3.70
2017-06-28T16:29:56.959Z,3.47
2017-06-28T16:32:25.344Z,3.30
2017-06-28T16:34:52.832Z,3.20
2017-06-28T16:37:20.330Z,3.17
2017-06-28T16:39:47.888Z,3.50
2017-06-28T16:42:15.404Z,3.60
2017-06-28T16:44:42.894Z,3.30
2017-06-28T16:47:10.397Z,2.90
2017-06-28T16:49:37.909Z,3.40
2017-06-28T16:52:05.529Z,3.90
2017-06-28T16:54:33.024Z,3.53
2017-06-28T16:57:00.539Z,4.10
2017-06-28T16:59:28.062Z,4.87
2017-06-28T17:01:55.581Z,4.00
2017-06-28T17:04:23.077Z,4.17
2017-06-28T17:06:50.579Z,3.50
2017-06-28T17:09:18.134Z,3.87
2017-06-28T17:11:45.700Z,3.73
2017-06-28T17:14:13.218Z,3.90
2017-06-28T17:16:40.710Z,2.70
2017-06-28T17:19:08.215Z,4.00
2017-06-28T17:21:35.726Z,3.17
2017-06-28T17:24:03.241Z,3.40
2017-06-28T17:26:30.732Z,3.97
2017-06-28T17:28:59.253Z,6.10
2017-06-28T17:31:26.746Z,14.00
2017-06-28T17:33:54.253Z,4.10
2017-06-28T17:36:22.503Z,3.20
2017-06-28T17:38:50.776Z,3.40
2017-06-28T17:41:19.003Z,3.60
2017-06-28T17:43:51.282Z,3.30
2017-06-28T17:46:22.334Z,3.80
2017-06-28T17:48:49.869Z,3.40
2017-06-28T17:51:17.408Z,3.57
2017-06-28T17:53:45.017Z,3.80
2017-06-28T17:58:47.161Z,3.10
2017-06-28T18:01:14.669Z,3.63
2017-06-28T18:03:42.203Z,3.50
2017-06-28T18:06:10.649Z,2.87
2017-06-28T18:08:39.954Z,3.20
2017-06-28T18:11:07.614Z,3.60
2017-06-28T18:13:38.233Z,3.10
2017-06-28T18:16:05.757Z,4.10
2017-06-28T18:18:33.257Z,4.20
2017-06-28T18:21:01.158Z,3.93
2017-06-28T18:23:29.720Z,3.40
2017-06-28T18:26:00.062Z,4.03
2017-06-28T18:28:27.645Z,3.40
2017-06-28T18:30:56.339Z,3.10
2017-06-28T18:33:23.927Z,9.90
2017-06-28T18:35:51.709Z,12.20
2017-06-28T18:38:19.205Z,3.13
2017-06-28T18:40:46.715Z,2.50
2017-06-28T18:43:15.427Z,2.10
2017-06-28T18:45:43.215Z,2.20
2017-06-28T18:48:10.917Z,2.10
2017-06-28T18:50:39.427Z,2.30
2017-06-28T18:53:08.109Z,2.80
2017-06-28T18:55:35.942Z,2.60
2017-06-28T18:58:03.794Z,2.87
2017-06-28T19:00:38.896Z,2.60
2017-06-28T19:03:06.453Z,2.50
2017-06-28T19:05:35.319Z,2.07
2017-06-28T19:08:02.998Z,2.13
2017-06-28T19:10:30.851Z,2.20
2017-06-28T19:13:01.494Z,2.33
2017-06-28T19:15:46.629Z,3.33
2017-06-28T19:18:14.419Z,7.83
2017-06-28T19:20:47.516Z,5.27
2017-06-28T19:23:15.893Z,5.33
2017-06-28T19:25:51.360Z,2.93
2017-06-28T19:28:21.183Z,2.20
2017-06-28T19:30:50.421Z,2.60
2017-06-28T19:33:20.458Z,2.43
2017-06-28T19:35:48.286Z,3.30
2017-06-28T19:38:23.021Z,2.80
2017-06-28T19:41:19.275Z,2.60
2017-06-28T19:43:56.158Z,1.90
2017-06-28T19:46:31.690Z,1.90
2017-06-28T19:49:09.462Z,2.30
2017-06-28T19:51:38.042Z,2.57
2017-06-28T19:56:46.810Z,2.80
2017-06-28T19:59:24.164Z,2.70
2017-06-28T20:02:09.185Z,5.70
2017-06-28T20:07:28.585Z,2.47
2017-06-28T20:09:58.138Z,27.07
2017-06-28T20:12:25.715Z,7.23
2017-06-28T20:14:53.253Z,7.13
2017-06-28T20:17:20.790Z,3.47
2017-06-28T20:19:48.324Z,3.80
2017-06-28T20:22:15.820Z,3.50
2017-06-28T20:24:45.052Z,4.30
2017-06-28T20:27:12.737Z,3.73
2017-06-28T20:29:41.012Z,4.27
2017-06-28T20:32:08.528Z,3.93
2017-06-28T20:34:36.112Z,3.40
2017-06-28T20:37:04.085Z,3.37
2017-06-28T20:39:31.674Z,4.03
2017-06-28T20:41:59.982Z,3.80
2017-06-28T20:44:27.510Z,3.60
2017-06-28T20:46:55.034Z,3.47
2017-06-28T20:49:22.633Z,4.07
2017-06-28T20:51:50.230Z,4.00
2017-06-28T20:54:18.388Z,3.87
2017-06-28T20:56:46.304Z,13.03
2017-06-28T20:59:13.881Z,20.13
2017-06-28T21:01:41.422Z,7.00
2017-06-28T21:04:09.008Z,5.43
2017-06-28T21:06:36.664Z,5.00
2017-06-28T21:09:04.298Z,4.83
2017-06-28T21:11:31.826Z,4.63
2017-06-28T21:14:02.639Z,4.50
2017-06-28T21:16:32.398Z,4.20
2017-06-28T21:19:00.256Z,3.17
2017-06-28T21:21:27.847Z,4.23
2017-06-28T21:23:55.373Z,4.17
2017-06-28T21:26:23.197Z,3.90
2017-06-28T21:28:51.486Z,4.23
2017-06-28T21:31:21.873Z,4.30
2017-06-28T21:33:51.357Z,3.50
2017-06-28T21:36:19.250Z,3.80
2017-06-28T21:38:46.760Z,3.10
2017-06-28T21:41:17.241Z,3.47
2017-06-28T21:43:45.542Z,4.20
2017-06-28T21:46:13.197Z,3.37
2017-06-28T21:48:40.753Z,3.33
2017-06-28T21:51:08.750Z,3.47
2017-06-28T21:53:36.333Z,3.53
2017-06-28T21:56:03.922Z,3.70
2017-06-28T21:58:32.549Z,3.60
2017-06-28T22:01:00.141Z,4.07
2017-06-28T22:03:27.819Z,4.20
2017-06-28T22:05:56.121Z,51.40
2017-06-28T22:08:25.175Z,36.83
2017-06-28T22:10:52.708Z,7.90
2017-06-28T22:13:20.214Z,4.00
2017-06-28T22:15:47.746Z,4.00
2017-06-28T22:18:15.288Z,3.50
2017-06-28T22:20:43.023Z,3.43
2017-06-28T22:23:10.620Z,3.10
2017-06-28T22:25:38.162Z,3.30
2017-06-28T22:28:05.784Z,3.30
2017-06-28T22:30:33.775Z,3.83
2017-06-28T22:33:06.366Z,2.77
2017-06-28T22:35:33.925Z,3.50
2017-06-28T22:38:02.884Z,2.83
2017-06-28T22:40:35.842Z,4.27
2017-06-28T22:43:06.475Z,3.40
2017-06-28T22:45:39.458Z,3.50
2017-06-28T22:48:11.479Z,3.30
2017-06-28T22:50:45.446Z,3.27
2017-06-28T22:53:13.161Z,3.23
2017-06-28T22:55:41.488Z,4.20
2017-06-28T22:58:09.215Z,3.63
2017-06-28T23:00:36.753Z,4.17
2017-06-28T23:03:04.612Z,3.40
2017-06-28T23:05:34.616Z,3.57
2017-06-28T23:08:07.350Z,3.03
2017-06-28T23:10:35.977Z,3.10
2017-06-28T23:13:03.574Z,3.60
2017-06-28T23:15:38.686Z,3.27
2017-06-28T23:18:07.985Z,3.30
2017-06-28T23:20:35.605Z,3.50
2017-06-28T23:23:03.170Z,3.30
2017-06-28T23:25:31.765Z,4.03
2017-06-28T23:28:02.080Z,3.17
2017-06-28T23:30:29.615Z,3.53
2017-06-28T23:32:59.058Z,3.13
2017-06-28T23:35:26.696Z,3.40
2017-06-28T23:40:36.740Z,3.17
2017-06-28T23:43:04.262Z,3.23
2017-06-28T23:45:33.006Z,4.13
2017-06-28T23:48:00.730Z,4.10
2017-06-28T23:50:28.432Z,3.50
2017-06-28T23:52:55.989Z,3.07
2017-06-28T23:55:26.026Z,3.80
2017-06-28T23:57:54.860Z,3.20
